createdAt,value
2018-11-20T00:01:32.359Z,48.46
2018-11-20T00:04:21.141Z,48.48
2018-11-20T00:07:08.146Z,48.55
2018-11-20T00:09:49.387Z,48.56
2018-11-20T00:12:44.163Z,48.57
2018-11-20T00:15:31.768Z,48.60
2018-11-20T00:18:23.274Z,48.62
2018-11-20T00:21:10.197Z,48.64
2018-11-20T00:24:13.610Z,48.66
2018-11-20T00:27:01.033Z,48.69
2018-11-20T00:29:52.398Z,48.71
2018-11-20T00:32:39.738Z,48.74
2018-11-20T00:35:26.847Z,48.77
2018-11-20T00:38:27.206Z,48.78
2018-11-20T00:41:08.593Z,48.79
2018-11-20T00:44:06.539Z,48.85
2018-11-20T00:46:55.297Z,48.88
2018-11-20T00:49:42.256Z,48.88
2018-11-20T00:52:29.230Z,48.92
2018-11-20T00:55:26.671Z,48.92
2018-11-20T00:58:23.482Z,48.94
2018-11-20T01:01:30.290Z,48.92
2018-11-20T01:04:25.410Z,48.96
2018-11-20T01:07:12.608Z,48.97
2018-11-20T01:10:05.265Z,48.99
2018-11-20T01:13:02.638Z,48.98
2018-11-20T01:15:50.906Z,49.00
2018-11-20T01:18:38.148Z,49.03
2018-11-20T01:21:26.606Z,49.05
2018-11-20T01:24:23.151Z,49.05
2018-11-20T01:27:10.231Z,49.05
2018-11-20T01:29:57.912Z,49.06
2018-11-20T01:32:45.682Z,49.07
2018-11-20T01:35:32.968Z,49.08
2018-11-20T01:38:27.361Z,49.12
2018-11-20T01:41:21.578Z,49.11
2018-11-20T01:44:08.700Z,49.10
2018-11-20T01:47:06.017Z,49.12
2018-11-20T01:49:54.419Z,49.11
2018-11-20T01:53:01.024Z,49.11
2018-11-20T01:55:55.242Z,49.13
2018-11-20T01:58:34.296Z,49.15
2018-11-20T02:01:40.925Z,49.18
2018-11-20T02:04:41.570Z,49.18
2018-11-20T02:07:31.074Z,49.19
2018-11-20T02:10:18.589Z,49.19
2018-11-20T02:13:54.091Z,49.21
2018-11-20T02:16:41.772Z,49.24
2018-11-20T02:19:28.779Z,49.22
2018-11-20T02:22:35.705Z,49.27
2018-11-20T02:25:13.658Z,49.31
2018-11-20T02:28:05.291Z,49.34
2018-11-20T02:31:02.793Z,49.37
2018-11-20T02:33:44.883Z,49.38
2018-11-20T02:36:35.892Z,49.37
2018-11-20T02:39:16.043Z,49.43
2018-11-20T02:42:02.944Z,49.47
2018-11-20T02:44:51.539Z,49.45
2018-11-20T02:47:38.503Z,49.46
2018-11-20T02:50:35.843Z,49.51
2018-11-20T02:53:42.717Z,49.57
2018-11-20T02:56:29.897Z,49.56
2018-11-20T02:59:16.808Z,49.58
2018-11-20T03:02:04.727Z,49.58
2018-11-20T03:05:11.392Z,49.61
2018-11-20T03:07:48.894Z,49.64
2018-11-20T03:10:43.144Z,49.66
2018-11-20T03:13:34.662Z,49.71
2018-11-20T03:16:16.204Z,49.73
2018-11-20T03:18:57.919Z,49.76
2018-11-20T03:21:37.835Z,49.78
2018-11-20T03:24:33.062Z,49.81
2018-11-20T03:27:21.443Z,49.85
2018-11-20T03:31:17.192Z,49.87
2018-11-20T03:34:17.532Z,49.89
2018-11-20T03:37:04.985Z,49.85
2018-11-20T03:39:52.011Z,49.90
2018-11-20T03:42:43.703Z,49.95
2018-11-20T03:45:31.094Z,49.98
2018-11-20T03:48:16.759Z,50.05
2018-11-20T03:51:03.870Z,50.02
2018-11-20T03:53:55.787Z,50.08
2018-11-20T03:56:56.481Z,50.07
2018-11-20T03:59:43.739Z,50.12
2018-11-20T04:02:32.182Z,50.17
2018-11-20T04:05:21.279Z,50.17
2018-11-20T04:08:22.062Z,50.19
2018-11-20T04:11:10.495Z,50.23
2018-11-20T04:14:08.137Z,50.25
2018-11-20T04:16:53.053Z,50.27
2018-11-20T04:19:44.967Z,50.28
2018-11-20T04:22:48.578Z,50.32
2018-11-20T04:25:32.764Z,50.35
2018-11-20T04:28:26.912Z,50.38
2018-11-20T04:32:24.469Z,50.42
2018-11-20T04:35:25.267Z,50.44
2018-11-20T04:38:12.289Z,50.39
2018-11-20T04:41:06.771Z,50.47
2018-11-20T04:43:53.873Z,50.49
2018-11-20T04:46:45.377Z,50.56
2018-11-20T04:49:26.897Z,50.57
2018-11-20T04:52:21.679Z,50.60
2018-11-20T04:55:14.275Z,50.67
2018-11-20T04:58:14.489Z,50.73
2018-11-20T05:01:02.887Z,50.76
2018-11-20T05:03:40.724Z,50.76
2018-11-20T05:06:20.489Z,50.78
2018-11-20T05:09:08.886Z,50.81
2018-11-20T05:11:55.978Z,50.80
2018-11-20T05:14:42.758Z,50.82
2018-11-20T05:17:30.138Z,50.82
2018-11-20T05:20:16.969Z,50.87
2018-11-20T05:23:10.921Z,50.91
2018-11-20T05:26:17.407Z,50.90
2018-11-20T05:29:03.434Z,50.94
2018-11-20T05:31:50.608Z,50.96
2018-11-20T05:34:37.797Z,50.96
2018-11-20T05:37:25.110Z,50.98
2018-11-20T05:40:20.428Z,51.03
2018-11-20T05:43:08.802Z,51.07
2018-11-20T05:45:56.276Z,51.09
2018-11-20T05:48:56.770Z,51.12
2018-11-20T05:51:51.748Z,51.11
2018-11-20T05:54:40.133Z,51.12
2018-11-20T05:57:44.508Z,51.13
2018-11-20T06:00:41.821Z,51.14
2018-11-20T06:03:28.918Z,51.15
2018-11-20T06:06:15.955Z,51.15
2018-11-20T06:09:16.204Z,51.15
2018-11-20T06:12:04.037Z,51.15
2018-11-20T06:15:04.911Z,51.17
2018-11-20T06:17:52.241Z,51.19
2018-11-20T06:20:46.451Z,51.20
2018-11-20T06:23:31.297Z,51.18
2018-11-20T06:26:18.330Z,51.23
2018-11-20T06:28:57.228Z,51.24
2018-11-20T06:31:45.550Z,51.26
2018-11-20T06:34:43.066Z,51.30
2018-11-20T06:37:30.347Z,51.29
2018-11-20T06:40:27.932Z,51.32
2018-11-20T06:43:11.447Z,51.31
2018-11-20T06:46:06.047Z,51.33
2018-11-20T06:48:52.546Z,51.37
2018-11-20T06:51:43.795Z,51.38
2018-11-20T06:54:32.188Z,51.38
2018-11-20T06:57:12.207Z,51.44
2018-11-20T07:00:12.726Z,51.46
2018-11-20T07:02:54.617Z,51.47
2018-11-20T07:05:52.389Z,51.49
2018-11-20T07:08:41.276Z,51.51
2018-11-20T07:11:41.802Z,51.51
2018-11-20T07:14:33.540Z,51.55
2018-11-20T07:17:44.812Z,51.56
2018-11-20T07:20:39.457Z,51.60
2018-11-20T07:23:42.858Z,51.59
2018-11-20T07:26:43.716Z,51.64
2018-11-20T07:29:31.347Z,51.66
2018-11-20T07:32:19.677Z,51.69
2018-11-20T07:34:55.476Z,51.74
2018-11-20T07:37:56.890Z,51.78
2018-11-20T07:40:48.428Z,51.85
2018-11-20T07:43:45.973Z,51.84
2018-11-20T07:46:43.432Z,51.87
2018-11-20T07:49:30.458Z,51.89
2018-11-20T07:52:18.851Z,51.89
2018-11-20T07:55:25.439Z,51.89
2018-11-20T07:58:16.242Z,51.93
2018-11-20T08:01:03.677Z,51.82
2018-11-20T08:03:54.721Z,51.65
2018-11-20T08:06:41.668Z,51.45
2018-11-20T08:09:42.498Z,51.31
2018-11-20T08:12:36.963Z,51.19
2018-11-20T08:15:28.772Z,51.00
2018-11-20T08:18:29.233Z,50.82
2018-11-20T08:21:33.054Z,50.69
2018-11-20T08:24:14.624Z,50.48
2018-11-20T08:27:12.705Z,50.27
2018-11-20T08:29:56.760Z,50.08
2018-11-20T08:32:44.375Z,49.83
2018-11-20T08:35:24.762Z,49.57
2018-11-20T08:38:07.771Z,49.31
2018-11-20T08:40:54.816Z,49.03
2018-11-20T08:43:49.455Z,48.91
2018-11-20T08:46:46.682Z,48.71
2018-11-20T08:49:50.363Z,48.44
2018-11-20T08:52:37.504Z,48.15
2018-11-20T08:55:27.757Z,47.73
2018-11-20T08:58:15.023Z,47.28
2018-11-20T09:01:02.579Z,46.97
2018-11-20T09:03:53.619Z,46.54
2018-11-20T09:06:40.445Z,46.34
2018-11-20T09:09:28.472Z,46.20
2018-11-20T09:12:07.195Z,45.89
2018-11-20T09:14:54.173Z,45.38
2018-11-20T09:17:33.966Z,44.97
2018-11-20T09:20:28.700Z,44.63
2018-11-20T09:23:15.737Z,44.34
2018-11-20T09:26:07.737Z,44.23
2018-11-20T09:28:58.885Z,44.01
2018-11-20T09:31:50.113Z,43.88
2018-11-20T09:34:38.861Z,43.65
2018-11-20T09:37:19.385Z,43.41
2018-11-20T09:41:17.211Z,43.22
2018-11-20T09:45:00.339Z,42.94
2018-11-20T09:48:07.285Z,42.57
2018-11-20T09:51:02.155Z,42.77
2018-11-20T09:53:48.166Z,42.64
2018-11-20T09:56:36.560Z,42.63
2018-11-20T09:59:25.064Z,42.72
2018-11-20T10:02:16.241Z,42.81
2018-11-20T10:05:19.775Z,42.95
2018-11-20T10:08:00.461Z,43.00
2018-11-20T10:10:51.633Z,42.83
2018-11-20T10:13:38.568Z,42.74
2018-11-20T10:16:26.971Z,42.56
2018-11-20T10:19:12.421Z,42.57
2018-11-20T10:22:00.843Z,42.62
2018-11-20T10:24:41.552Z,42.45
2018-11-20T10:27:35.695Z,42.40
2018-11-20T10:30:24.992Z,42.32
2018-11-20T10:33:16.610Z,42.07
2018-11-20T10:36:05.095Z,41.85
2018-11-20T10:38:59.456Z,41.44
2018-11-20T10:41:38.495Z,40.80
2018-11-20T10:44:35.786Z,40.58
2018-11-20T10:47:20.003Z,40.63
2018-11-20T10:50:15.211Z,40.70
2018-11-20T10:53:06.634Z,40.66
2018-11-20T10:55:55.045Z,40.59
2018-11-20T10:58:40.228Z,40.63
2018-11-20T11:01:41.252Z,40.64
2018-11-20T11:04:30.108Z,40.42
2018-11-20T11:07:22.634Z,40.33
2018-11-20T11:10:20.042Z,40.11
2018-11-20T11:13:14.664Z,39.75
2018-11-20T11:16:18.276Z,39.53
2018-11-20T11:19:05.570Z,39.33
2018-11-20T11:21:52.949Z,39.21
2018-11-20T11:24:37.667Z,39.29
2018-11-20T11:27:38.344Z,39.39
2018-11-20T11:30:26.668Z,39.32
2018-11-20T11:33:24.242Z,39.34
2018-11-20T11:36:06.686Z,39.20
2018-11-20T11:38:53.648Z,39.07
2018-11-20T11:41:44.895Z,38.83
2018-11-20T11:44:32.365Z,38.46
2018-11-20T11:47:19.624Z,38.10
2018-11-20T11:50:06.634Z,37.92
2018-11-20T11:52:58.129Z,37.74
2018-11-20T11:55:45.255Z,37.49
2018-11-20T11:58:36.688Z,37.24
2018-11-20T12:04:32.299Z,36.65
2018-11-20T12:07:23.836Z,36.50
2018-11-20T12:10:04.898Z,36.48
2018-11-20T12:12:51.935Z,36.81
2018-11-20T12:15:35.456Z,36.89
2018-11-20T12:18:14.014Z,36.74
2018-11-20T12:21:11.133Z,36.35
2018-11-20T12:24:03.468Z,35.97
2018-11-20T12:26:52.423Z,35.87
2018-11-20T12:29:59.215Z,35.85
2018-11-20T12:32:35.916Z,35.79
2018-11-20T12:35:33.191Z,35.66
2018-11-20T12:38:13.193Z,35.37
2018-11-20T12:41:11.539Z,35.13
2018-11-20T12:43:59.997Z,35.11
2018-11-20T12:46:50.914Z,35.07
2018-11-20T12:49:36.815Z,34.80
2018-11-20T12:52:24.388Z,34.45
2018-11-20T12:55:25.137Z,34.36
2018-11-20T12:58:26.650Z,34.31
2018-11-20T13:01:15.351Z,34.27
2018-11-20T13:04:06.622Z,34.25
2018-11-20T13:06:55.588Z,34.07
2018-11-20T13:09:42.619Z,33.84
2018-11-20T13:12:49.147Z,33.69
2018-11-20T13:15:33.453Z,33.55
2018-11-20T13:18:12.787Z,33.48
2018-11-20T13:20:56.461Z,33.43
2018-11-20T13:23:49.916Z,33.42
2018-11-20T13:26:35.788Z,33.39
2018-11-20T13:29:23.314Z,33.38
2018-11-20T13:32:15.817Z,33.30
2018-11-20T13:34:58.023Z,33.26
2018-11-20T13:37:46.045Z,33.29
2018-11-20T13:41:21.052Z,33.38
2018-11-20T13:44:11.837Z,33.58
2018-11-20T13:47:05.107Z,34.01
2018-11-20T13:50:00.422Z,34.55
2018-11-20T13:52:49.043Z,34.87
2018-11-20T13:55:35.039Z,35.08
2018-11-20T13:58:26.304Z,35.23
2018-11-20T14:01:14.164Z,35.43
2018-11-20T14:04:01.651Z,35.53
2018-11-20T14:07:08.580Z,35.47
2018-11-20T14:10:03.223Z,35.33
2018-11-20T14:12:51.665Z,35.20
2018-11-20T14:15:46.358Z,35.18
2018-11-20T14:18:33.483Z,35.29
2018-11-20T14:21:20.732Z,35.44
2018-11-20T14:24:11.712Z,35.61
2018-11-20T14:27:06.614Z,35.59
2018-11-20T14:29:44.568Z,35.76
2018-11-20T14:32:39.002Z,35.91
2018-11-20T14:35:36.401Z,36.06
2018-11-20T14:38:23.605Z,36.22
2018-11-20T14:41:11.263Z,36.49
2018-11-20T14:44:15.562Z,36.70
2018-11-20T14:47:07.397Z,36.92
2018-11-20T14:50:04.325Z,37.09
2018-11-20T14:52:47.172Z,37.26
2018-11-20T14:55:34.166Z,37.44
2018-11-20T14:58:25.279Z,37.56
2018-11-20T15:01:11.902Z,37.78
2018-11-20T15:03:54.594Z,38.09
2018-11-20T15:06:41.418Z,38.28
2018-11-20T15:09:32.925Z,38.37
2018-11-20T15:12:21.380Z,38.46
2018-11-20T15:15:13.503Z,38.52
2018-11-20T15:18:01.043Z,38.62
2018-11-20T15:20:49.462Z,38.77
2018-11-20T15:23:43.855Z,38.90
2018-11-20T15:26:45.250Z,39.00
2018-11-20T15:29:34.136Z,39.15
2018-11-20T15:32:41.520Z,39.31
2018-11-20T15:35:35.508Z,39.50
2018-11-20T15:38:26.998Z,39.66
2018-11-20T15:41:14.647Z,39.73
2018-11-20T15:44:06.406Z,39.79
2018-11-20T15:47:04.019Z,39.83
2018-11-20T15:49:59.266Z,39.89
2018-11-20T15:52:53.539Z,40.01
2018-11-20T15:55:37.743Z,40.17
2018-11-20T15:58:24.851Z,40.29
2018-11-20T16:01:22.871Z,40.39
2018-11-20T16:04:11.269Z,40.48
2018-11-20T16:07:13.347Z,40.58
2018-11-20T16:10:07.828Z,40.63
2018-11-20T16:13:06.807Z,40.66
2018-11-20T16:15:57.780Z,40.66
2018-11-20T16:18:45.412Z,40.69
2018-11-20T16:21:24.671Z,40.80
2018-11-20T16:24:11.720Z,40.92
2018-11-20T16:26:59.597Z,40.99
2018-11-20T16:29:58.543Z,41.01
2018-11-20T16:32:50.735Z,41.04
2018-11-20T16:36:16.015Z,41.06
2018-11-20T16:43:03.804Z,41.11
2018-11-20T16:45:51.052Z,41.12
2018-11-20T16:48:38.156Z,41.19
2018-11-20T16:51:32.500Z,41.25
2018-11-20T16:54:39.821Z,41.29
2018-11-20T16:57:23.168Z,41.41
2018-11-20T17:00:11.576Z,41.55
2018-11-20T17:03:00.425Z,41.68
2018-11-20T17:05:54.759Z,41.80
2018-11-20T17:08:42.711Z,41.83
2018-11-20T17:11:30.425Z,41.88
2018-11-20T17:14:22.397Z,42.00
2018-11-20T17:17:09.431Z,42.09
2018-11-20T17:19:56.552Z,42.18
2018-11-20T17:22:48.446Z,42.24
2018-11-20T17:25:48.860Z,42.33
2018-11-20T17:28:35.717Z,42.38
2018-11-20T17:31:22.911Z,42.41
2018-11-20T17:34:10.044Z,42.49
2018-11-20T17:36:47.647Z,42.50
2018-11-20T17:39:34.570Z,42.60
2018-11-20T17:42:37.888Z,42.71
2018-11-20T17:45:40.430Z,42.71
2018-11-20T17:48:37.960Z,42.79
2018-11-20T17:51:23.872Z,42.82
2018-11-20T17:54:38.277Z,43.12
2018-11-20T17:57:24.591Z,43.07
2018-11-20T18:00:10.496Z,43.09
2018-11-20T18:03:10.231Z,43.07
2018-11-20T18:05:58.556Z,43.13
2018-11-20T18:08:41.114Z,43.17
2018-11-20T18:11:34.041Z,43.22
2018-11-20T18:14:19.941Z,43.29
2018-11-20T18:17:08.303Z,43.32
2018-11-20T18:19:55.977Z,43.38
2018-11-20T18:22:33.514Z,43.41
2018-11-20T18:25:12.772Z,43.45
2018-11-20T18:27:53.987Z,43.51
2018-11-20T18:30:40.556Z,43.57
2018-11-20T18:33:31.245Z,43.60
2018-11-20T18:36:24.371Z,43.61
2018-11-20T18:39:10.817Z,43.65
2018-11-20T18:42:14.094Z,43.73
2018-11-20T18:48:08.258Z,43.91
2018-11-20T18:50:54.148Z,43.94
2018-11-20T18:53:44.500Z,43.98
2018-11-20T18:56:31.740Z,43.99
2018-11-20T18:59:29.381Z,44.02
2018-11-20T19:02:15.806Z,44.06
2018-11-20T19:05:07.203Z,44.10
2018-11-20T19:07:59.395Z,44.15
2018-11-20T19:10:56.629Z,44.22
2018-11-20T19:13:44.388Z,44.24
2018-11-20T19:16:43.702Z,44.25
2018-11-20T19:19:33.279Z,44.29
2018-11-20T19:22:30.206Z,44.29
2018-11-20T19:25:27.608Z,44.32
2018-11-20T19:28:12.116Z,44.33
2018-11-20T19:31:06.918Z,44.36
2018-11-20T19:33:49.168Z,44.41
2018-11-20T19:36:50.740Z,44.48
2018-11-20T19:39:47.858Z,44.48
2018-11-20T19:42:37.653Z,44.51
2018-11-20T19:45:27.179Z,44.56
2018-11-20T19:48:09.232Z,44.61
2018-11-20T19:51:05.580Z,44.65
2018-11-20T19:53:56.529Z,44.70
2018-11-20T19:56:47.746Z,44.76
2018-11-20T19:59:33.973Z,44.80
2018-11-20T20:02:21.210Z,44.85
2018-11-20T20:05:14.358Z,44.91
2018-11-20T20:07:54.828Z,44.94
2018-11-20T20:10:34.748Z,45.01
2018-11-20T20:13:26.851Z,45.06
2018-11-20T20:16:14.063Z,45.12
2018-11-20T20:19:01.300Z,45.15
2018-11-20T20:21:42.199Z,45.20
2018-11-20T20:24:25.019Z,45.22
2018-11-20T20:27:11.165Z,45.23
2018-11-20T20:29:57.433Z,45.21
2018-11-20T20:32:44.620Z,45.22
2018-11-20T20:35:30.860Z,45.24
2018-11-20T20:38:17.560Z,45.25
2018-11-20T20:41:05.237Z,45.30
2018-11-20T20:43:51.467Z,45.35
2018-11-20T20:46:45.586Z,45.41
2018-11-20T20:49:36.264Z,45.46
2018-11-20T20:52:11.824Z,45.54
2018-11-20T20:54:57.486Z,45.61
2018-11-20T20:57:43.481Z,45.67
2018-11-20T21:00:50.733Z,45.71
2018-11-20T21:03:31.645Z,45.73
2018-11-20T21:06:21.692Z,45.77
2018-11-20T21:09:16.456Z,45.85
2018-11-20T21:12:06.858Z,45.88
2018-11-20T21:15:09.374Z,45.89
2018-11-20T21:17:56.438Z,45.94
2018-11-20T21:20:46.455Z,46.02
2018-11-20T21:23:34.007Z,46.12
2018-11-20T21:26:27.059Z,46.14
2018-11-20T21:29:32.779Z,46.18
2018-11-20T21:32:19.544Z,46.21
2018-11-20T21:35:22.528Z,46.20
2018-11-20T21:38:25.018Z,46.19
2018-11-20T21:41:11.147Z,46.18
2018-11-20T21:43:57.262Z,46.24
2018-11-20T21:46:31.853Z,46.30
2018-11-20T21:49:19.939Z,46.36
2018-11-20T21:52:05.750Z,46.40
2018-11-20T21:54:54.918Z,46.42
2018-11-20T21:57:45.423Z,46.40
2018-11-20T22:00:45.389Z,46.40
2018-11-20T22:03:23.476Z,46.39
2018-11-20T22:06:15.151Z,46.38
2018-11-20T22:08:55.867Z,46.43
2018-11-20T22:11:42.486Z,46.45
2018-11-20T22:14:28.436Z,46.45
2018-11-20T22:17:34.152Z,46.52
2018-11-20T22:20:27.363Z,46.61
2018-11-20T22:23:09.189Z,46.68
2018-11-20T22:26:02.501Z,46.72
2018-11-20T22:28:51.540Z,46.82
2018-11-20T22:31:37.857Z,46.83
2018-11-20T22:34:25.119Z,46.84
2018-11-20T22:37:12.464Z,46.84
2018-11-20T22:40:18.715Z,46.86
2018-11-20T22:43:05.399Z,46.92
2018-11-20T22:46:02.132Z,46.86
2018-11-20T22:48:52.499Z,46.89
2018-11-20T22:51:46.075Z,46.90
2018-11-20T22:54:42.427Z,46.91
2018-11-20T22:57:38.987Z,46.94
2018-11-20T23:00:30.077Z,46.95
2018-11-20T23:03:20.871Z,46.96
2018-11-20T23:06:15.860Z,46.97
2018-11-20T23:08:44.862Z,47.02
2018-11-20T23:11:12.942Z,47.06
2018-11-20T23:13:40.744Z,47.13
2018-11-20T23:16:09.256Z,47.18
2018-11-20T23:18:37.944Z,47.24
2018-11-20T23:21:06.726Z,47.27
2018-11-20T23:23:34.468Z,47.29
2018-11-20T23:26:02.487Z,47.30
2018-11-20T23:28:30.167Z,47.33
2018-11-20T23:30:59.032Z,47.36
2018-11-20T23:33:26.802Z,47.39
2018-11-20T23:35:54.927Z,47.41
2018-11-20T23:38:24.021Z,47.45
2018-11-20T23:40:52.644Z,47.48
2018-11-20T23:43:20.352Z,47.53
2018-11-20T23:45:48.641Z,47.56
2018-11-20T23:48:16.358Z,47.60
2018-11-20T23:50:44.896Z,47.61
2018-11-20T23:53:13.261Z,47.66
2018-11-20T23:55:41.035Z,47.67
2018-11-20T23:58:09.550Z,47.69
